Airfield :
LOGIN :

Register | Disclaimer

   EN    FR    IT 

 










Legend :    VFR   Marginal VFR   IFR   Intensive IFR   Very Intensive IFR
Visi :
Ceiling :
>= 8 km
>= 3000ft
5 to 8 km
1000 to 3000 ft
1500m to 5 km
500 to 1000 ft
800 to 1500m
200 to 500 ft
< 800m
< 200 ft
Symbols :   Thunderstorms  Fog  Heavy snow  Heavy precipitations  Wind > 20 kt
SIGMETs :     Misc.  Thunderstorms  Icing  Turbulence  Mountain Waves  Volcanic Ashes







- Airport Elevation : 215 ft
- IATA code : ABZ
- Download approach charts


EGPD - Aberdeen / Dyce

CURRENT METAR :
  • 202150Z AUTO 24008KT 200V280 9999 NCD 12/09 Q1020 NOSIG

EXPIRED METARs :
  • 202120Z AUTO 22017KT 9999 NCD 12/09 Q1019 NOSIG
  • 202050Z AUTO 23013KT 200V260 9999 NCD 12/08 Q1019 NOSIG
  • 202020Z AUTO 22008G20KT 100V260 9999 NCD 13/08 Q1019 NOSIG
  • 201950Z AUTO 24011KT 210V270 9999 NCD 13/08 Q1019 NOSIG
  • 201920Z AUTO 22010KT 170V250 9999 NCD 13/08 Q1019
  • 201850Z AUTO 19005KT 140V240 9999 NCD 13/07 Q1019 NOSIG

TAF TAF EGPD
Valid from the 20 at 18:00 until the 21 at 18:00 UTC


201700Z 2018/2118 22012KT 9999 SCT030
PROB40
TEMPO 2018/2109 23020G30KT
BECMG 2109/2112 VRB02KT
PROB40
TEMPO 2109/2115 4000 RADZ BKN010
BECMG 2112/2115 22012KT
No reported NOTAMs for that airfield.
2 SIGMETs reported for the Scottish FIR (EGPX) :
 
Severe mountain waves
EGPX SIGMET 04 VALID 201900/202300 EGRR
EGPX SCOTTISH FIR SEV MTW FCST WI N6051 W00131 - N5841 W00140 - N5705 W00654 - N5949 W00637 - N6051 W00131 SFC/FL250 MOV NE 10KT NC=
Severe turbulence
EGPX SIGMET 03 VALID 201900/202300 EGRR
EGPX SCOTTISH FIR SEV TURB FCST WI N6049 W00212 - N5832 W00310 - N5611 W00853 - N6053 W00843 - N6049 W00212 SFC/FL060 MOV NE 25KT NC=



MET'MAP, your aeronautical weather chart ! - Copyright ORBIFLY December 2007 - Disclaimer

ORBIFLY MET'MAP TEAM :

Programming & Development : Alexandra Zaïnal
Concept & Development : Baudouin d'Aumeries
Co-Development & Prog : Marc-Olivier Méhu
Technical & hardware support : Manuel Goepfert

Contact : metmap@orbifly.com




SOURCES & CREDITS :

   NOAA